sensor_id;sensor_type;location;lat;lon;timestamp;P1;durP1;ratioP1;P2;durP2;ratioP2
3000;SDS011;1510;51.072;6.678;2023-08-24T00:00:21;10.70;;;6.20;;
3000;SDS011;1510;51.072;6.678;2023-08-24T00:02:48;9.20;;;6.83;;
3000;SDS011;1510;51.072;6.678;2023-08-24T00:05:15;10.20;;;5.60;;
3000;SDS011;1510;51.072;6.678;2023-08-24T00:07:42;12.40;;;4.80;;
3000;SDS011;1510;51.072;6.678;2023-08-24T00:10:09;11.60;;;5.40;;
3000;SDS011;1510;51.072;6.678;2023-08-24T00:12:38;8.80;;;5.30;;
3000;SDS011;1510;51.072;6.678;2023-08-24T00:15:07;8.67;;;5.30;;
3000;SDS011;1510;51.072;6.678;2023-08-24T00:17:35;8.83;;;4.77;;
3000;SDS011;1510;51.072;6.678;2023-08-24T00:20:03;9.50;;;6.57;;
3000;SDS011;1510;51.072;6.678;2023-08-24T00:22:35;12.93;;;7.80;;
3000;SDS011;1510;51.072;6.678;2023-08-24T00:25:03;12.53;;;9.30;;
3000;SDS011;1510;51.072;6.678;2023-08-24T00:27:31;23.47;;;21.63;;
3000;SDS011;1510;51.072;6.678;2023-08-24T00:29:59;41.17;;;38.47;;
3000;SDS011;1510;51.072;6.678;2023-08-24T00:32:26;56.27;;;53.47;;
3000;SDS011;1510;51.072;6.678;2023-08-24T00:34:53;51.77;;;49.13;;
3000;SDS011;1510;51.072;6.678;2023-08-24T00:37:21;80.40;;;77.00;;
3000;SDS011;1510;51.072;6.678;2023-08-24T00:39:48;104.40;;;100.40;;
3000;SDS011;1510;51.072;6.678;2023-08-24T00:42:15;117.10;;;112.87;;
3000;SDS011;1510;51.072;6.678;2023-08-24T00:44:43;108.63;;;104.23;;
3000;SDS011;1510;51.072;6.678;2023-08-24T00:47:11;112.00;;;107.47;;
3000;SDS011;1510;51.072;6.678;2023-08-24T00:49:39;115.83;;;111.30;;
3000;SDS011;1510;51.072;6.678;2023-08-24T00:52:06;146.83;;;141.43;;
3000;SDS011;1510;51.072;6.678;2023-08-24T00:54:33;164.60;;;158.10;;
3000;SDS011;1510;51.072;6.678;2023-08-24T00:57:01;188.10;;;180.77;;
3000;SDS011;1510;51.072;6.678;2023-08-24T00:59:28;124.93;;;119.40;;
3000;SDS011;1510;51.072;6.678;2023-08-24T01:01:55;90.10;;;86.43;;
3000;SDS011;1510;51.072;6.678;2023-08-24T01:04:24;65.63;;;62.43;;
3000;SDS011;1510;51.072;6.678;2023-08-24T01:06:51;52.27;;;49.90;;
3000;SDS011;1510;51.072;6.678;2023-08-24T01:09:18;56.83;;;54.20;;
3000;SDS011;1510;51.072;6.678;2023-08-24T01:11:49;71.40;;;68.37;;
3000;SDS011;1510;51.072;6.678;2023-08-24T01:14:28;79.47;;;75.93;;
3000;SDS011;1510;51.072;6.678;2023-08-24T01:17:02;92.07;;;88.37;;
3000;SDS011;1510;51.072;6.678;2023-08-24T01:19:37;113.70;;;109.50;;
3000;SDS011;1510;51.072;6.678;2023-08-24T01:22:08;122.57;;;118.10;;
3000;SDS011;1510;51.072;6.678;2023-08-24T01:24:47;106.87;;;102.17;;
3000;SDS011;1510;51.072;6.678;2023-08-24T01:27:22;105.13;;;100.70;;
3000;SDS011;1510;51.072;6.678;2023-08-24T01:29:49;121.27;;;116.63;;
3000;SDS011;1510;51.072;6.678;2023-08-24T01:32:17;109.90;;;105.63;;
3000;SDS011;1510;51.072;6.678;2023-08-24T01:34:44;110.10;;;105.60;;
3000;SDS011;1510;51.072;6.678;2023-08-24T01:37:11;104.43;;;100.43;;
3000;SDS011;1510;51.072;6.678;2023-08-24T01:39:42;119.50;;;114.73;;
3000;SDS011;1510;51.072;6.678;2023-08-24T01:42:14;117.27;;;112.63;;
3000;SDS011;1510;51.072;6.678;2023-08-24T01:44:47;105.90;;;101.90;;
3000;SDS011;1510;51.072;6.678;2023-08-24T01:47:18;88.40;;;84.83;;
3000;SDS011;1510;51.072;6.678;2023-08-24T01:49:46;88.00;;;84.60;;
3000;SDS011;1510;51.072;6.678;2023-08-24T01:52:14;91.37;;;87.47;;
3000;SDS011;1510;51.072;6.678;2023-08-24T01:54:41;114.67;;;110.20;;
3000;SDS011;1510;51.072;6.678;2023-08-24T01:57:10;80.33;;;77.07;;
3000;SDS011;1510;51.072;6.678;2023-08-24T01:59:37;111.43;;;106.97;;
3000;SDS011;1510;51.072;6.678;2023-08-24T02:02:05;139.30;;;134.10;;
3000;SDS011;1510;51.072;6.678;2023-08-24T02:04:32;147.53;;;141.57;;
3000;SDS011;1510;51.072;6.678;2023-08-24T02:06:59;146.23;;;140.63;;
3000;SDS011;1510;51.072;6.678;2023-08-24T02:09:26;143.50;;;137.83;;
3000;SDS011;1510;51.072;6.678;2023-08-24T02:11:53;152.93;;;146.73;;
3000;SDS011;1510;51.072;6.678;2023-08-24T02:14:20;160.90;;;154.63;;
3000;SDS011;1510;51.072;6.678;2023-08-24T02:16:47;151.90;;;145.60;;
3000;SDS011;1510;51.072;6.678;2023-08-24T02:19:15;160.40;;;153.90;;
3000;SDS011;1510;51.072;6.678;2023-08-24T02:21:42;166.23;;;159.57;;
3000;SDS011;1510;51.072;6.678;2023-08-24T02:24:09;188.20;;;180.37;;
3000;SDS011;1510;51.072;6.678;2023-08-24T02:26:36;154.50;;;148.13;;
3000;SDS011;1510;51.072;6.678;2023-08-24T02:29:03;133.17;;;127.83;;
3000;SDS011;1510;51.072;6.678;2023-08-24T02:31:30;157.43;;;151.30;;
3000;SDS011;1510;51.072;6.678;2023-08-24T02:33:58;176.70;;;168.80;;
3000;SDS011;1510;51.072;6.678;2023-08-24T02:36:26;179.30;;;171.70;;
3000;SDS011;1510;51.072;6.678;2023-08-24T02:38:53;189.87;;;182.00;;
3000;SDS011;1510;51.072;6.678;2023-08-24T02:41:21;191.60;;;183.60;;
3000;SDS011;1510;51.072;6.678;2023-08-24T02:43:48;191.83;;;183.87;;
3000;SDS011;1510;51.072;6.678;2023-08-24T02:46:15;218.07;;;209.47;;
3000;SDS011;1510;51.072;6.678;2023-08-24T02:48:43;221.10;;;212.23;;
3000;SDS011;1510;51.072;6.678;2023-08-24T02:51:10;219.13;;;210.23;;
3000;SDS011;1510;51.072;6.678;2023-08-24T02:53:39;262.13;;;250.83;;
3000;SDS011;1510;51.072;6.678;2023-08-24T02:56:06;218.17;;;209.63;;
3000;SDS011;1510;51.072;6.678;2023-08-24T02:58:33;194.23;;;186.23;;
3000;SDS011;1510;51.072;6.678;2023-08-24T03:01:03;178.93;;;171.70;;
3000;SDS011;1510;51.072;6.678;2023-08-24T03:03:31;214.97;;;205.70;;
3000;SDS011;1510;51.072;6.678;2023-08-24T03:05:59;208.37;;;199.23;;
3000;SDS011;1510;51.072;6.678;2023-08-24T03:08:28;183.67;;;175.90;;
3000;SDS011;1510;51.072;6.678;2023-08-24T03:10:57;160.40;;;154.20;;
3000;SDS011;1510;51.072;6.678;2023-08-24T03:13:24;153.80;;;147.70;;
3000;SDS011;1510;51.072;6.678;2023-08-24T03:15:51;144.47;;;138.97;;
3000;SDS011;1510;51.072;6.678;2023-08-24T03:18:18;120.67;;;116.23;;
3000;SDS011;1510;51.072;6.678;2023-08-24T03:20:47;89.83;;;86.33;;
3000;SDS011;1510;51.072;6.678;2023-08-24T03:23:15;103.57;;;99.17;;
3000;SDS011;1510;51.072;6.678;2023-08-24T03:25:42;94.70;;;91.10;;
3000;SDS011;1510;51.072;6.678;2023-08-24T03:28:11;101.07;;;96.97;;
3000;SDS011;1510;51.072;6.678;2023-08-24T03:30:38;86.27;;;82.30;;
3000;SDS011;1510;51.072;6.678;2023-08-24T03:33:11;115.40;;;110.67;;
3000;SDS011;1510;51.072;6.678;2023-08-24T03:35:38;124.13;;;119.13;;
3000;SDS011;1510;51.072;6.678;2023-08-24T03:38:05;125.60;;;120.90;;
3000;SDS011;1510;51.072;6.678;2023-08-24T03:40:32;113.30;;;108.60;;
3000;SDS011;1510;51.072;6.678;2023-08-24T03:43:00;148.20;;;142.37;;
3000;SDS011;1510;51.072;6.678;2023-08-24T03:45:29;154.63;;;148.63;;
3000;SDS011;1510;51.072;6.678;2023-08-24T03:47:56;119.97;;;115.20;;
3000;SDS011;1510;51.072;6.678;2023-08-24T03:50:23;111.87;;;107.57;;
3000;SDS011;1510;51.072;6.678;2023-08-24T03:52:51;117.90;;;113.40;;
3000;SDS011;1510;51.072;6.678;2023-08-24T03:55:19;230.30;;;221.20;;
3000;SDS011;1510;51.072;6.678;2023-08-24T03:57:46;278.50;;;265.70;;
3000;SDS011;1510;51.072;6.678;2023-08-24T04:00:13;289.77;;;277.10;;
3000;SDS011;1510;51.072;6.678;2023-08-24T04:02:43;318.13;;;302.33;;
3000;SDS011;1510;51.072;6.678;2023-08-24T04:05:11;305.47;;;290.33;;
3000;SDS011;1510;51.072;6.678;2023-08-24T04:07:38;271.33;;;258.43;;
3000;SDS011;1510;51.072;6.678;2023-08-24T04:10:06;263.13;;;250.83;;
3000;SDS011;1510;51.072;6.678;2023-08-24T04:12:34;266.87;;;254.83;;
3000;SDS011;1510;51.072;6.678;2023-08-24T04:15:01;268.57;;;255.77;;
3000;SDS011;1510;51.072;6.678;2023-08-24T04:17:29;261.33;;;249.40;;
3000;SDS011;1510;51.072;6.678;2023-08-24T04:19:58;295.30;;;281.30;;
3000;SDS011;1510;51.072;6.678;2023-08-24T04:22:25;341.57;;;324.87;;
3000;SDS011;1510;51.072;6.678;2023-08-24T04:24:51;480.90;;;456.30;;
3000;SDS011;1510;51.072;6.678;2023-08-24T04:27:18;746.17;;;706.50;;
3000;SDS011;1510;51.072;6.678;2023-08-24T04:29:46;925.23;;;873.23;;
3000;SDS011;1510;51.072;6.678;2023-08-24T04:32:14;932.73;;;874.47;;
3000;SDS011;1510;51.072;6.678;2023-08-24T04:34:41;937.80;;;869.10;;
3000;SDS011;1510;51.072;6.678;2023-08-24T04:37:09;1069.47;;;989.37;;
3000;SDS011;1510;51.072;6.678;2023-08-24T04:39:36;1211.67;;;999.90;;
3000;SDS011;1510;51.072;6.678;2023-08-24T04:42:03;1261.53;;;999.90;;
3000;SDS011;1510;51.072;6.678;2023-08-24T04:44:31;1280.97;;;999.90;;
3000;SDS011;1510;51.072;6.678;2023-08-24T04:46:58;1287.40;;;999.90;;
3000;SDS011;1510;51.072;6.678;2023-08-24T04:49:25;1297.20;;;999.90;;
3000;SDS011;1510;51.072;6.678;2023-08-24T04:51:53;1290.07;;;999.90;;
3000;SDS011;1510;51.072;6.678;2023-08-24T04:54:22;1285.57;;;999.90;;
3000;SDS011;1510;51.072;6.678;2023-08-24T04:56:49;1279.03;;;999.90;;
3000;SDS011;1510;51.072;6.678;2023-08-24T04:59:15;1273.47;;;999.90;;
3000;SDS011;1510;51.072;6.678;2023-08-24T05:01:42;1255.03;;;999.90;;
3000;SDS011;1510;51.072;6.678;2023-08-24T05:04:09;1268.77;;;999.90;;
3000;SDS011;1510;51.072;6.678;2023-08-24T05:06:36;1247.27;;;999.90;;
3000;SDS011;1510;51.072;6.678;2023-08-24T05:09:03;1250.57;;;999.90;;
3000;SDS011;1510;51.072;6.678;2023-08-24T05:11:31;1258.20;;;999.90;;
3000;SDS011;1510;51.072;6.678;2023-08-24T05:13:58;1261.37;;;999.90;;
3000;SDS011;1510;51.072;6.678;2023-08-24T05:16:25;1259.07;;;999.90;;
3000;SDS011;1510;51.072;6.678;2023-08-24T05:18:53;1264.57;;;999.90;;
3000;SDS011;1510;51.072;6.678;2023-08-24T05:21:20;1282.07;;;999.90;;
3000;SDS011;1510;51.072;6.678;2023-08-24T05:23:47;1285.07;;;999.90;;
3000;SDS011;1510;51.072;6.678;2023-08-24T05:26:14;1286.60;;;999.90;;
3000;SDS011;1510;51.072;6.678;2023-08-24T05:28:48;1299.77;;;999.90;;
3000;SDS011;1510;51.072;6.678;2023-08-24T05:31:15;1305.00;;;999.90;;
3000;SDS011;1510;51.072;6.678;2023-08-24T05:33:42;1306.17;;;999.90;;
3000;SDS011;1510;51.072;6.678;2023-08-24T05:36:09;1310.17;;;999.90;;
3000;SDS011;1510;51.072;6.678;2023-08-24T05:38:37;1303.07;;;999.90;;
3000;SDS011;1510;51.072;6.678;2023-08-24T05:41:03;1308.07;;;999.90;;
3000;SDS011;1510;51.072;6.678;2023-08-24T05:43:30;1314.90;;;999.90;;
3000;SDS011;1510;51.072;6.678;2023-08-24T05:45:59;1305.90;;;999.90;;
3000;SDS011;1510;51.072;6.678;2023-08-24T05:48:28;1285.00;;;999.90;;
3000;SDS011;1510;51.072;6.678;2023-08-24T05:50:55;1282.23;;;999.90;;
3000;SDS011;1510;51.072;6.678;2023-08-24T05:53:22;1282.30;;;999.90;;
3000;SDS011;1510;51.072;6.678;2023-08-24T05:55:48;1269.20;;;999.90;;
3000;SDS011;1510;51.072;6.678;2023-08-24T05:58:15;1256.07;;;999.90;;
3000;SDS011;1510;51.072;6.678;2023-08-24T06:00:42;1257.60;;;999.90;;
3000;SDS011;1510;51.072;6.678;2023-08-24T06:03:10;1237.57;;;999.90;;
3000;SDS011;1510;51.072;6.678;2023-08-24T06:05:38;1222.20;;;999.90;;
3000;SDS011;1510;51.072;6.678;2023-08-24T06:08:05;1182.63;;;999.90;;
3000;SDS011;1510;51.072;6.678;2023-08-24T06:10:31;1174.50;;;999.90;;
3000;SDS011;1510;51.072;6.678;2023-08-24T06:12:59;1165.20;;;999.90;;
3000;SDS011;1510;51.072;6.678;2023-08-24T06:15:27;1135.03;;;999.90;;
3000;SDS011;1510;51.072;6.678;2023-08-24T06:17:54;1129.13;;;999.90;;
3000;SDS011;1510;51.072;6.678;2023-08-24T06:20:22;1083.87;;;999.07;;
3000;SDS011;1510;51.072;6.678;2023-08-24T06:22:49;1072.53;;;986.90;;
3000;SDS011;1510;51.072;6.678;2023-08-24T06:25:16;1060.10;;;974.50;;
3000;SDS011;1510;51.072;6.678;2023-08-24T06:27:43;1042.93;;;959.27;;
3000;SDS011;1510;51.072;6.678;2023-08-24T06:30:10;1034.87;;;952.27;;
3000;SDS011;1510;51.072;6.678;2023-08-24T06:32:37;1009.23;;;930.33;;
3000;SDS011;1510;51.072;6.678;2023-08-24T06:35:05;994.93;;;918.03;;
3000;SDS011;1510;51.072;6.678;2023-08-24T06:37:33;955.10;;;882.90;;
3000;SDS011;1510;51.072;6.678;2023-08-24T06:40:00;963.77;;;890.80;;
3000;SDS011;1510;51.072;6.678;2023-08-24T06:42:27;926.00;;;857.57;;
3000;SDS011;1510;51.072;6.678;2023-08-24T06:44:54;919.47;;;851.17;;
3000;SDS011;1510;51.072;6.678;2023-08-24T06:47:21;910.67;;;844.50;;
3000;SDS011;1510;51.072;6.678;2023-08-24T06:49:48;898.50;;;836.90;;
3000;SDS011;1510;51.072;6.678;2023-08-24T06:52:16;891.23;;;832.23;;
3000;SDS011;1510;51.072;6.678;2023-08-24T06:54:44;878.53;;;823.73;;
3000;SDS011;1510;51.072;6.678;2023-08-24T06:57:13;879.33;;;824.23;;
3000;SDS011;1510;51.072;6.678;2023-08-24T06:59:40;885.27;;;828.20;;
3000;SDS011;1510;51.072;6.678;2023-08-24T07:02:07;873.80;;;820.77;;
3000;SDS011;1510;51.072;6.678;2023-08-24T07:04:34;870.53;;;817.93;;
3000;SDS011;1510;51.072;6.678;2023-08-24T07:07:02;866.13;;;814.93;;
3000;SDS011;1510;51.072;6.678;2023-08-24T07:09:29;863.00;;;814.20;;
3000;SDS011;1510;51.072;6.678;2023-08-24T07:11:57;871.10;;;820.30;;
3000;SDS011;1510;51.072;6.678;2023-08-24T07:14:24;878.93;;;829.33;;
3000;SDS011;1510;51.072;6.678;2023-08-24T07:16:51;870.33;;;822.73;;
3000;SDS011;1510;51.072;6.678;2023-08-24T07:19:18;861.17;;;815.27;;
3000;SDS011;1510;51.072;6.678;2023-08-24T07:21:45;870.87;;;823.20;;
3000;SDS011;1510;51.072;6.678;2023-08-24T07:24:12;887.43;;;837.20;;
3000;SDS011;1510;51.072;6.678;2023-08-24T07:26:40;833.38;;;791.53;;
3000;SDS011;1510;51.072;6.678;2023-08-24T07:29:08;821.73;;;782.57;;
3000;SDS011;1510;51.072;6.678;2023-08-24T07:31:35;763.40;;;728.67;;
3000;SDS011;1510;51.072;6.678;2023-08-24T07:34:03;666.43;;;639.67;;
3000;SDS011;1510;51.072;6.678;2023-08-24T07:36:29;585.53;;;563.23;;
3000;SDS011;1510;51.072;6.678;2023-08-24T07:38:56;314.50;;;304.07;;
3000;SDS011;1510;51.072;6.678;2023-08-24T07:41:23;247.00;;;238.70;;
3000;SDS011;1510;51.072;6.678;2023-08-24T07:43:50;312.87;;;302.30;;
3000;SDS011;1510;51.072;6.678;2023-08-24T07:46:18;133.83;;;128.70;;
3000;SDS011;1510;51.072;6.678;2023-08-24T07:48:45;137.57;;;132.57;;
3000;SDS011;1510;51.072;6.678;2023-08-24T07:51:12;18.63;;;17.13;;
3000;SDS011;1510;51.072;6.678;2023-08-24T07:53:39;11.33;;;9.90;;
3000;SDS011;1510;51.072;6.678;2023-08-24T07:56:06;10.10;;;8.50;;
3000;SDS011;1510;51.072;6.678;2023-08-24T07:58:32;11.83;;;6.40;;
3000;SDS011;1510;51.072;6.678;2023-08-24T08:00:59;9.63;;;6.53;;
3000;SDS011;1510;51.072;6.678;2023-08-24T08:03:29;10.77;;;6.37;;
3000;SDS011;1510;51.072;6.678;2023-08-24T08:05:56;8.80;;;5.50;;
3000;SDS011;1510;51.072;6.678;2023-08-24T08:08:23;9.00;;;7.00;;
3000;SDS011;1510;51.072;6.678;2023-08-24T08:10:57;10.27;;;5.73;;
3000;SDS011;1510;51.072;6.678;2023-08-24T08:13:25;10.47;;;5.07;;
3000;SDS011;1510;51.072;6.678;2023-08-24T08:15:52;8.27;;;4.90;;
3000;SDS011;1510;51.072;6.678;2023-08-24T08:18:19;7.87;;;4.23;;
3000;SDS011;1510;51.072;6.678;2023-08-24T08:20:50;20.33;;;6.73;;
3000;SDS011;1510;51.072;6.678;2023-08-24T08:23:18;10.20;;;5.63;;
3000;SDS011;1510;51.072;6.678;2023-08-24T08:25:45;14.17;;;5.10;;
3000;SDS011;1510;51.072;6.678;2023-08-24T08:28:11;11.63;;;5.20;;
3000;SDS011;1510;51.072;6.678;2023-08-24T08:30:38;8.67;;;5.03;;
3000;SDS011;1510;51.072;6.678;2023-08-24T08:33:05;9.20;;;5.90;;
3000;SDS011;1510;51.072;6.678;2023-08-24T08:35:32;12.33;;;5.40;;
3000;SDS011;1510;51.072;6.678;2023-08-24T08:38:00;9.90;;;5.63;;
3000;SDS011;1510;51.072;6.678;2023-08-24T08:40:27;10.17;;;5.00;;
3000;SDS011;1510;51.072;6.678;2023-08-24T08:42:56;9.20;;;5.20;;
3000;SDS011;1510;51.072;6.678;2023-08-24T08:45:24;8.27;;;4.70;;
3000;SDS011;1510;51.072;6.678;2023-08-24T08:47:52;10.57;;;5.30;;
3000;SDS011;1510;51.072;6.678;2023-08-24T08:50:22;11.37;;;5.40;;
3000;SDS011;1510;51.072;6.678;2023-08-24T08:52:49;8.67;;;4.80;;
3000;SDS011;1510;51.072;6.678;2023-08-24T08:55:17;14.40;;;5.90;;
3000;SDS011;1510;51.072;6.678;2023-08-24T08:57:45;8.50;;;4.60;;
3000;SDS011;1510;51.072;6.678;2023-08-24T09:00:15;9.67;;;4.70;;
3000;SDS011;1510;51.072;6.678;2023-08-24T09:02:43;9.80;;;4.50;;
3000;SDS011;1510;51.072;6.678;2023-08-24T09:05:11;8.53;;;4.37;;
3000;SDS011;1510;51.072;6.678;2023-08-24T09:07:39;10.40;;;5.67;;
3000;SDS011;1510;51.072;6.678;2023-08-24T09:10:06;9.20;;;4.60;;
3000;SDS011;1510;51.072;6.678;2023-08-24T09:12:35;9.95;;;5.18;;
3000;SDS011;1510;51.072;6.678;2023-08-24T09:15:03;15.33;;;4.80;;
3000;SDS011;1510;51.072;6.678;2023-08-24T09:17:31;10.30;;;5.00;;
3000;SDS011;1510;51.072;6.678;2023-08-24T09:19:58;11.40;;;4.80;;
3000;SDS011;1510;51.072;6.678;2023-08-24T09:22:26;12.20;;;4.10;;
3000;SDS011;1510;51.072;6.678;2023-08-24T09:24:52;11.50;;;4.30;;
3000;SDS011;1510;51.072;6.678;2023-08-24T09:27:20;10.60;;;4.20;;
3000;SDS011;1510;51.072;6.678;2023-08-24T09:29:49;8.53;;;4.33;;
3000;SDS011;1510;51.072;6.678;2023-08-24T09:32:21;7.83;;;3.77;;
3000;SDS011;1510;51.072;6.678;2023-08-24T09:34:48;7.90;;;3.83;;
3000;SDS011;1510;51.072;6.678;2023-08-24T09:37:15;9.80;;;4.00;;
3000;SDS011;1510;51.072;6.678;2023-08-24T09:39:43;8.20;;;3.30;;
3000;SDS011;1510;51.072;6.678;2023-08-24T09:42:11;13.43;;;5.17;;
3000;SDS011;1510;51.072;6.678;2023-08-24T09:44:40;11.63;;;3.67;;
3000;SDS011;1510;51.072;6.678;2023-08-24T09:47:11;22.40;;;4.10;;
3000;SDS011;1510;51.072;6.678;2023-08-24T09:49:38;10.90;;;4.00;;
3000;SDS011;1510;51.072;6.678;2023-08-24T09:52:08;7.70;;;3.60;;
3000;SDS011;1510;51.072;6.678;2023-08-24T09:54:36;6.20;;;3.20;;
3000;SDS011;1510;51.072;6.678;2023-08-24T09:57:04;10.60;;;4.00;;
3000;SDS011;1510;51.072;6.678;2023-08-24T09:59:33;12.07;;;3.30;;
3000;SDS011;1510;51.072;6.678;2023-08-24T10:02:01;8.43;;;3.60;;
3000;SDS011;1510;51.072;6.678;2023-08-24T10:04:33;8.13;;;3.90;;
3000;SDS011;1510;51.072;6.678;2023-08-24T10:07:02;8.60;;;3.13;;
3000;SDS011;1510;51.072;6.678;2023-08-24T10:09:35;7.50;;;4.13;;
3000;SDS011;1510;51.072;6.678;2023-08-24T10:12:07;7.17;;;3.30;;
3000;SDS011;1510;51.072;6.678;2023-08-24T10:14:36;8.10;;;4.00;;
3000;SDS011;1510;51.072;6.678;2023-08-24T10:17:11;10.30;;;3.50;;
3000;SDS011;1510;51.072;6.678;2023-08-24T10:19:39;7.20;;;3.53;;
3000;SDS011;1510;51.072;6.678;2023-08-24T10:22:07;10.23;;;4.13;;
3000;SDS011;1510;51.072;6.678;2023-08-24T10:24:35;9.50;;;6.30;;
3000;SDS011;1510;51.072;6.678;2023-08-24T10:27:02;12.83;;;4.47;;
3000;SDS011;1510;51.072;6.678;2023-08-24T10:29:30;10.43;;;4.23;;
3000;SDS011;1510;51.072;6.678;2023-08-24T10:31:57;9.87;;;3.80;;
3000;SDS011;1510;51.072;6.678;2023-08-24T10:34:24;13.17;;;4.37;;
3000;SDS011;1510;51.072;6.678;2023-08-24T10:36:52;10.67;;;3.93;;
3000;SDS011;1510;51.072;6.678;2023-08-24T10:39:26;11.00;;;4.17;;
3000;SDS011;1510;51.072;6.678;2023-08-24T10:41:54;8.10;;;3.53;;
3000;SDS011;1510;51.072;6.678;2023-08-24T10:44:21;9.47;;;3.70;;
3000;SDS011;1510;51.072;6.678;2023-08-24T10:47:05;6.70;;;3.20;;
3000;SDS011;1510;51.072;6.678;2023-08-24T10:49:33;9.00;;;3.77;;
3000;SDS011;1510;51.072;6.678;2023-08-24T10:54:47;8.57;;;3.30;;
3000;SDS011;1510;51.072;6.678;2023-08-24T10:57:19;7.50;;;3.13;;
3000;SDS011;1510;51.072;6.678;2023-08-24T10:59:57;8.50;;;3.53;;
3000;SDS011;1510;51.072;6.678;2023-08-24T11:02:30;8.27;;;3.37;;
3000;SDS011;1510;51.072;6.678;2023-08-24T11:05:07;10.30;;;3.30;;
3000;SDS011;1510;51.072;6.678;2023-08-24T11:07:48;7.70;;;2.93;;
3000;SDS011;1510;51.072;6.678;2023-08-24T11:10:16;9.03;;;4.03;;
3000;SDS011;1510;51.072;6.678;2023-08-24T11:15:48;8.53;;;3.63;;
3000;SDS011;1510;51.072;6.678;2023-08-24T11:18:20;8.33;;;3.80;;
3000;SDS011;1510;51.072;6.678;2023-08-24T11:20:48;8.13;;;3.40;;
3000;SDS011;1510;51.072;6.678;2023-08-24T11:23:18;10.30;;;3.33;;
3000;SDS011;1510;51.072;6.678;2023-08-24T11:25:46;12.43;;;3.80;;
3000;SDS011;1510;51.072;6.678;2023-08-24T11:28:16;8.90;;;3.70;;
3000;SDS011;1510;51.072;6.678;2023-08-24T11:30:44;14.37;;;3.97;;
3000;SDS011;1510;51.072;6.678;2023-08-24T11:33:11;7.20;;;3.77;;
3000;SDS011;1510;51.072;6.678;2023-08-24T11:35:40;9.83;;;3.87;;
3000;SDS011;1510;51.072;6.678;2023-08-24T11:38:08;10.10;;;4.13;;
3000;SDS011;1510;51.072;6.678;2023-08-24T11:40:37;12.00;;;3.80;;
3000;SDS011;1510;51.072;6.678;2023-08-24T11:43:04;16.47;;;3.40;;
3000;SDS011;1510;51.072;6.678;2023-08-24T11:45:31;9.60;;;3.30;;
3000;SDS011;1510;51.072;6.678;2023-08-24T11:47:59;11.13;;;3.23;;
3000;SDS011;1510;51.072;6.678;2023-08-24T11:50:29;12.20;;;3.50;;
3000;SDS011;1510;51.072;6.678;2023-08-24T11:52:56;16.23;;;4.30;;
3000;SDS011;1510;51.072;6.678;2023-08-24T11:55:24;9.57;;;4.30;;
3000;SDS011;1510;51.072;6.678;2023-08-24T11:57:53;7.20;;;3.70;;
3000;SDS011;1510;51.072;6.678;2023-08-24T12:00:21;7.00;;;3.50;;
3000;SDS011;1510;51.072;6.678;2023-08-24T12:02:48;9.10;;;3.80;;
3000;SDS011;1510;51.072;6.678;2023-08-24T12:05:19;8.60;;;3.70;;
3000;SDS011;1510;51.072;6.678;2023-08-24T12:07:47;9.23;;;3.07;;
3000;SDS011;1510;51.072;6.678;2023-08-24T12:10:14;8.87;;;3.17;;
3000;SDS011;1510;51.072;6.678;2023-08-24T12:12:41;15.10;;;4.43;;
3000;SDS011;1510;51.072;6.678;2023-08-24T12:15:15;11.87;;;3.20;;
3000;SDS011;1510;51.072;6.678;2023-08-24T12:17:45;10.60;;;3.43;;
3000;SDS011;1510;51.072;6.678;2023-08-24T12:20:19;8.27;;;3.53;;
3000;SDS011;1510;51.072;6.678;2023-08-24T12:22:53;10.40;;;4.63;;
3000;SDS011;1510;51.072;6.678;2023-08-24T12:25:22;14.07;;;4.20;;
3000;SDS011;1510;51.072;6.678;2023-08-24T12:27:50;9.23;;;5.10;;
3000;SDS011;1510;51.072;6.678;2023-08-24T12:30:18;10.37;;;9.37;;
3000;SDS011;1510;51.072;6.678;2023-08-24T12:32:46;9.70;;;7.50;;
3000;SDS011;1510;51.072;6.678;2023-08-24T12:35:15;64.93;;;62.13;;
3000;SDS011;1510;51.072;6.678;2023-08-24T12:37:42;79.57;;;76.27;;
3000;SDS011;1510;51.072;6.678;2023-08-24T12:40:09;24.60;;;22.97;;
3000;SDS011;1510;51.072;6.678;2023-08-24T12:42:36;286.20;;;276.73;;
3000;SDS011;1510;51.072;6.678;2023-08-24T12:45:04;176.60;;;170.27;;
3000;SDS011;1510;51.072;6.678;2023-08-24T12:47:33;149.63;;;144.20;;
3000;SDS011;1510;51.072;6.678;2023-08-24T12:50:03;45.13;;;42.73;;
3000;SDS011;1510;51.072;6.678;2023-08-24T12:52:31;35.93;;;33.90;;
3000;SDS011;1510;51.072;6.678;2023-08-24T12:54:59;33.13;;;31.30;;
3000;SDS011;1510;51.072;6.678;2023-08-24T12:57:25;41.57;;;39.00;;
3000;SDS011;1510;51.072;6.678;2023-08-24T12:59:52;17.30;;;15.80;;
3000;SDS011;1510;51.072;6.678;2023-08-24T13:02:19;54.00;;;50.87;;
3000;SDS011;1510;51.072;6.678;2023-08-24T13:04:48;49.97;;;47.23;;
3000;SDS011;1510;51.072;6.678;2023-08-24T13:07:15;54.47;;;51.97;;
3000;SDS011;1510;51.072;6.678;2023-08-24T13:09:41;24.33;;;22.50;;
3000;SDS011;1510;51.072;6.678;2023-08-24T13:12:08;34.40;;;32.00;;
3000;SDS011;1510;51.072;6.678;2023-08-24T13:14:35;71.07;;;67.73;;
3000;SDS011;1510;51.072;6.678;2023-08-24T13:17:02;173.77;;;167.60;;
3000;SDS011;1510;51.072;6.678;2023-08-24T13:19:29;114.50;;;110.10;;
3000;SDS011;1510;51.072;6.678;2023-08-24T13:21:57;98.97;;;94.80;;
3000;SDS011;1510;51.072;6.678;2023-08-24T13:24:24;178.20;;;172.03;;
3000;SDS011;1510;51.072;6.678;2023-08-24T13:26:51;170.67;;;164.60;;
3000;SDS011;1510;51.072;6.678;2023-08-24T13:29:17;295.77;;;285.27;;
3000;SDS011;1510;51.072;6.678;2023-08-24T13:31:44;71.70;;;68.50;;
3000;SDS011;1510;51.072;6.678;2023-08-24T13:34:11;49.13;;;46.63;;
3000;SDS011;1510;51.072;6.678;2023-08-24T13:36:38;99.00;;;94.43;;
3000;SDS011;1510;51.072;6.678;2023-08-24T13:39:06;41.57;;;39.37;;
3000;SDS011;1510;51.072;6.678;2023-08-24T13:41:33;130.67;;;125.40;;
3000;SDS011;1510;51.072;6.678;2023-08-24T13:44:00;150.73;;;145.20;;
3000;SDS011;1510;51.072;6.678;2023-08-24T13:46:27;62.50;;;59.13;;
3000;SDS011;1510;51.072;6.678;2023-08-24T13:48:54;160.93;;;155.07;;
3000;SDS011;1510;51.072;6.678;2023-08-24T13:51:21;111.00;;;106.27;;
3000;SDS011;1510;51.072;6.678;2023-08-24T13:53:47;63.90;;;60.27;;
3000;SDS011;1510;51.072;6.678;2023-08-24T13:56:15;112.40;;;107.57;;
3000;SDS011;1510;51.072;6.678;2023-08-24T13:58:42;195.67;;;187.77;;
3000;SDS011;1510;51.072;6.678;2023-08-24T14:01:09;266.87;;;258.13;;
3000;SDS011;1510;51.072;6.678;2023-08-24T14:03:37;279.53;;;269.93;;
3000;SDS011;1510;51.072;6.678;2023-08-24T14:06:04;203.73;;;197.10;;
3000;SDS011;1510;51.072;6.678;2023-08-24T14:08:31;75.27;;;72.10;;
3000;SDS011;1510;51.072;6.678;2023-08-24T14:10:58;214.10;;;207.03;;
3000;SDS011;1510;51.072;6.678;2023-08-24T14:13:26;71.03;;;68.03;;
3000;SDS011;1510;51.072;6.678;2023-08-24T14:15:53;117.27;;;112.53;;
3000;SDS011;1510;51.072;6.678;2023-08-24T14:18:21;61.47;;;58.17;;
3000;SDS011;1510;51.072;6.678;2023-08-24T14:20:48;44.53;;;42.33;;
3000;SDS011;1510;51.072;6.678;2023-08-24T14:23:15;51.13;;;47.80;;
3000;SDS011;1510;51.072;6.678;2023-08-24T14:25:41;177.43;;;171.23;;
3000;SDS011;1510;51.072;6.678;2023-08-24T14:28:08;369.60;;;356.07;;
3000;SDS011;1510;51.072;6.678;2023-08-24T14:30:38;385.43;;;370.63;;
3000;SDS011;1510;51.072;6.678;2023-08-24T14:33:05;361.43;;;348.13;;
3000;SDS011;1510;51.072;6.678;2023-08-24T14:35:32;379.07;;;364.47;;
3000;SDS011;1510;51.072;6.678;2023-08-24T14:37:58;366.20;;;353.20;;
3000;SDS011;1510;51.072;6.678;2023-08-24T14:40:25;219.97;;;212.90;;
3000;SDS011;1510;51.072;6.678;2023-08-24T14:42:52;166.03;;;160.53;;
3000;SDS011;1510;51.072;6.678;2023-08-24T14:45:20;137.63;;;132.23;;
3000;SDS011;1510;51.072;6.678;2023-08-24T14:47:48;237.73;;;229.80;;